Time;durP1;ratioP1;P1;durP2;ratioP2;P2;SDS_P1;SDS_P2;PMS_P1;PMS_P2;Temp;Humidity;BMP_temperature;BMP_pressure;BME280_temperature;BME280_humidity;BME280_pressure;Samples;Min_cycle;Max_cycle;Signal;HPM_P1;HPM_P2
2022/04/26 03:37:33;;;;;;;;;;;;;;;11.08;61.83;101308.37;4419439;32;20379;-70
2022/04/26 03:39:59;;;;;;;;;;;;;;;11.14;61.50;101310.25;4415376;32;19964;-70
2022/04/26 03:42:24;;;;;;;;;;;;;;;11.04;61.90;101304.78;4419448;32;19976;-70
2022/04/26 03:44:50;;;;;;;;;;;;;;;11.22;61.20;101303.28;4418495;32;19993;-70
2022/04/26 03:47:15;;;;;;;;;;;;;;;11.24;60.77;101305.66;4421234;32;19999;-70
2022/04/26 03:49:41;;;;;;;;;;;;;;;11.41;60.40;101298.91;4416695;32;20083;-70
2022/04/26 03:52:08;;;;;;;;;;;;;;;11.50;60.19;101296.31;4412735;32;19965;-70
2022/04/26 03:54:33;;;;;;;;;;;;;;;11.58;59.93;101303.41;4416619;32;19961;-70
2022/04/26 03:56:59;;;;;;;;;;;;;;;11.66;59.64;101297.22;4419168;32;19969;-70
2022/04/26 03:59:25;;;;;;;;;;;;;;;11.34;60.63;101293.41;4415989;32;20020;-70
2022/04/26 04:01:50;;;;;;;;;;;;;;;11.31;60.66;101299.91;4420866;32;20000;-69
2022/04/26 04:04:16;;;;;;;;;;;;;;;11.19;60.84;101300.50;4417121;32;20314;-69
2022/04/26 04:06:41;;;;;;;;;;;;;;;11.29;60.47;101299.56;4419390;32;20439;-69
2022/04/26 04:09:07;;;;;;;;;;;;;;;11.67;59.52;101306.50;4416849;32;20001;-69
2022/04/26 04:11:34;;;;;;;;;;;;;;;11.61;60.10;101303.38;4418433;32;19957;-69
2022/04/26 04:14:01;;;;;;;;;;;;;;;11.66;59.71;101307.75;4418323;32;19979;-69
2022/04/26 04:16:26;;;;;;;;;;;;;;;11.62;60.11;101299.34;4422772;32;19969;-69
2022/04/26 04:19:23;;;;;;;;;;;;;;;11.68;59.65;101303.25;4420237;32;19969;-70
2022/04/26 04:21:37;;;;;;;;;;;;;;;11.72;59.43;101300.38;4419980;32;20424;-70
2022/04/26 04:24:03;;;;;;;;;;;;;;;11.99;58.30;101306.62;4415274;32;19949;-70
2022/04/26 04:26:28;;;;;;;;;;;;;;;11.98;58.63;101305.88;4418638;32;19990;-70
2022/04/26 04:28:54;;;;;;;;;;;;;;;12.12;58.34;101306.78;4421169;32;20009;-70
2022/04/26 04:31:19;;;;;;;;;;;;;;;12.20;58.10;101311.03;4414706;32;20024;-70
2022/04/26 04:33:45;;;;;;;;;;;;;;;12.29;57.60;101314.87;4401555;32;20248;-70
2022/04/26 04:36:10;;;;;;;;;;;;;;;12.24;57.32;101311.78;4415704;32;20351;-70
2022/04/26 04:38:36;;;;;;;;;;;;;;;12.02;57.95;101312.22;4420349;32;19949;-70
2022/04/26 04:41:01;;;;;;;;;;;;;;;12.22;57.79;101320.66;4416538;32;19950;-70
2022/04/26 04:43:27;;;;;;;;;;;;;;;12.19;57.61;101324.38;4414210;32;20343;-70
2022/04/26 04:45:53;;;;;;;;;;;;;;;12.20;57.74;101316.69;4414045;32;20327;-70
2022/04/26 04:48:18;;;;;;;;;;;;;;;12.06;58.12;101314.97;4417462;32;19968;-69
2022/04/26 04:50:44;;;;;;;;;;;;;;;12.06;58.29;101321.41;4416834;32;19997;-69
2022/04/26 04:53:10;;;;;;;;;;;;;;;12.07;58.22;101323.00;4414920;32;20024;-69
2022/04/26 04:55:38;;;;;;;;;;;;;;;12.02;58.17;101319.88;4418369;32;20335;-69
2022/04/26 04:58:04;;;;;;;;;;;;;;;12.09;57.70;101331.03;4416326;32;20256;-69
2022/04/26 05:00:30;;;;;;;;;;;;;;;12.13;57.78;101324.06;4416789;32;20003;-69
2022/04/26 05:02:56;;;;;;;;;;;;;;;12.15;57.85;101326.44;4415476;32;20000;-69
2022/04/26 05:05:23;;;;;;;;;;;;;;;12.26;58.01;101341.13;4418512;32;20370;-70
2022/04/26 05:07:48;;;;;;;;;;;;;;;12.28;57.70;101338.69;4415947;32;19965;-70
2022/04/26 05:10:13;;;;;;;;;;;;;;;12.37;57.16;101340.91;4419117;32;19953;-70
2022/04/26 05:12:39;;;;;;;;;;;;;;;12.39;57.01;101341.28;4416049;32;20012;-70
2022/04/26 05:15:05;;;;;;;;;;;;;;;12.37;57.51;101344.53;4411496;32;20748;-70
2022/04/26 05:17:31;;;;;;;;;;;;;;;12.18;57.62;101347.38;4413735;32;20364;-70
2022/04/26 05:19:58;;;;;;;;;;;;;;;12.44;56.90;101350.03;4418851;32;19958;-70
2022/04/26 05:22:23;;;;;;;;;;;;;;;12.49;57.26;101352.31;4416830;32;19968;-70
2022/04/26 05:25:04;;;;;;;;;;;;;;;12.51;57.13;101346.22;4415931;32;20310;-70
2022/04/26 05:27:34;;;;;;;;;;;;;;;12.58;56.64;101346.09;4418597;32;19993;-70
2022/04/26 05:29:59;;;;;;;;;;;;;;;12.37;57.02;101360.66;4414926;32;19953;-70
2022/04/26 05:32:27;;;;;;;;;;;;;;;12.46;56.74;101363.69;4416490;32;20351;-70
2022/04/26 05:35:00;;;;;;;;;;;;;;;12.38;57.49;101362.25;4415232;32;20027;-70
2022/04/26 05:37:26;;;;;;;;;;;;;;;12.41;56.90;101367.84;4420142;32;19960;-70
2022/04/26 05:39:52;;;;;;;;;;;;;;;12.47;56.88;101366.09;4415941;32;19968;-70
2022/04/26 05:42:18;;;;;;;;;;;;;;;12.30;56.98;101366.47;4412809;32;20388;-70
2022/04/26 05:44:43;;;;;;;;;;;;;;;12.38;57.11;101354.59;4419531;32;19965;-70
2022/04/26 05:47:09;;;;;;;;;;;;;;;12.67;56.73;101371.72;4417061;32;20599;-70
2022/04/26 05:49:35;;;;;;;;;;;;;;;12.80;56.11;101375.44;4418547;32;19957;-70
2022/04/26 05:52:02;;;;;;;;;;;;;;;12.67;56.04;101375.31;4410913;32;20023;-70
2022/04/26 05:54:27;;;;;;;;;;;;;;;12.58;56.09;101369.47;4413842;32;19985;-70
2022/04/26 05:56:53;;;;;;;;;;;;;;;12.93;55.83;101376.34;4412638;32;19979;-70
2022/04/26 05:59:19;;;;;;;;;;;;;;;12.96;55.18;101375.44;4419001;32;19945;-70
2022/04/26 06:01:45;;;;;;;;;;;;;;;12.93;55.56;101377.13;4417267;32;19954;-70
2022/04/26 06:04:11;;;;;;;;;;;;;;;12.94;55.52;101383.56;4414166;32;19971;-70
2022/04/26 06:06:36;;;;;;;;;;;;;;;13.10;55.00;101378.75;4414220;32;19977;-69
2022/04/26 06:09:02;;;;;;;;;;;;;;;13.24;54.73;101383.28;4415599;32;20007;-70
2022/04/26 06:11:29;;;;;;;;;;;;;;;13.32;54.63;101396.78;4414993;32;20348;-69
2022/04/26 06:13:54;;;;;;;;;;;;;;;13.16;54.19;101391.12;4413977;32;20005;-69
2022/04/26 06:16:20;;;;;;;;;;;;;;;13.36;54.29;101388.22;4415491;32;20029;-69
2022/04/26 06:18:46;;;;;;;;;;;;;;;13.49;53.46;101395.56;4420669;32;20312;-69
2022/04/26 06:21:11;;;;;;;;;;;;;;;13.61;53.39;101397.66;4414908;32;19964;-69
2022/04/26 06:23:37;;;;;;;;;;;;;;;13.68;53.16;101400.31;4415832;32;20672;-69
2022/04/26 06:26:03;;;;;;;;;;;;;;;13.71;52.91;101393.75;4413344;32;19957;-70
2022/04/26 06:28:29;;;;;;;;;;;;;;;13.61;53.16;101394.03;4414228;32;20393;-69
2022/04/26 06:30:55;;;;;;;;;;;;;;;13.81;52.41;101403.22;4415490;32;19994;-70
2022/04/26 06:33:20;;;;;;;;;;;;;;;13.88;52.90;101403.81;4409045;32;20414;-69
2022/04/26 06:35:46;;;;;;;;;;;;;;;13.75;52.89;101405.00;4413393;32;20006;-70
2022/04/26 06:38:11;;;;;;;;;;;;;;;14.02;52.06;101402.63;4414340;32;20093;-69
2022/04/26 06:40:37;;;;;;;;;;;;;;;14.00;51.89;101411.56;4415792;32;19993;-70
2022/04/26 06:43:03;;;;;;;;;;;;;;;13.96;52.09;101422.19;4406893;32;20008;-69
2022/04/26 06:45:29;;;;;;;;;;;;;;;13.93;52.35;101419.47;4402496;32;19981;-70
2022/04/26 06:47:55;;;;;;;;;;;;;;;14.12;51.68;101417.72;4403279;32;19962;-70
2022/04/26 06:50:21;;;;;;;;;;;;;;;14.08;52.05;101421.44;4406733;32;19980;-70
2022/04/26 06:52:47;;;;;;;;;;;;;;;13.86;52.65;101419.63;4411901;32;19957;-71
2022/04/26 06:55:13;;;;;;;;;;;;;;;14.28;51.49;101426.19;4416138;32;20377;-71
2022/04/26 06:57:38;;;;;;;;;;;;;;;14.45;51.00;101419.25;4410725;32;20641;-70
2022/04/26 07:00:06;;;;;;;;;;;;;;;14.51;50.53;101426.72;4412161;32;20304;-70
2022/04/26 07:02:32;;;;;;;;;;;;;;;14.59;50.16;101422.44;4410421;32;20034;-70
2022/04/26 07:04:57;;;;;;;;;;;;;;;14.61;50.06;101428.47;4409400;32;19985;-72
2022/04/26 07:07:23;;;;;;;;;;;;;;;14.79;49.43;101425.88;4409469;32;19961;-72
2022/04/26 07:09:49;;;;;;;;;;;;;;;14.63;49.57;101428.00;4408937;32;20074;-69
2022/04/26 07:12:14;;;;;;;;;;;;;;;14.78;49.57;101432.00;4409738;32;19961;-70
2022/04/26 07:14:40;;;;;;;;;;;;;;;14.71;49.48;101437.88;4411023;32;20319;-70
2022/04/26 07:17:06;;;;;;;;;;;;;;;14.58;49.20;101435.03;4408693;32;19976;-70
2022/04/26 07:19:33;;;;;;;;;;;;;;;14.91;49.05;101438.50;4412246;32;20359;-70
2022/04/26 07:22:00;;;;;;;;;;;;;;;15.00;48.36;101436.56;4409873;32;20001;-71
2022/04/26 07:24:25;;;;;;;;;;;;;;;14.74;48.66;101442.66;4406641;32;19964;-71
2022/04/26 07:26:52;;;;;;;;;;;;;;;14.82;48.94;101450.47;4409571;32;20004;-70
2022/04/26 07:29:18;;;;;;;;;;;;;;;14.92;49.04;101451.41;4408912;32;20017;-70
2022/04/26 07:31:44;;;;;;;;;;;;;;;14.98;48.33;101446.75;4405681;32;20272;-71
2022/04/26 07:34:25;;;;;;;;;;;;;;;15.26;48.02;101448.72;4402764;32;20001;-70
2022/04/26 07:36:52;;;;;;;;;;;;;;;15.10;48.35;101443.16;4406883;32;20031;-71
2022/04/26 07:39:18;;;;;;;;;;;;;;;15.02;48.00;101453.13;4412696;32;20048;-70
2022/04/26 07:41:44;;;;;;;;;;;;;;;15.13;47.78;101453.59;4408616;32;20020;-70
2022/04/26 07:44:10;;;;;;;;;;;;;;;15.14;47.40;101441.78;4412484;32;21473;-71
2022/04/26 07:46:37;;;;;;;;;;;;;;;15.20;47.49;101450.53;4409481;32;20037;-71
2022/04/26 07:49:04;;;;;;;;;;;;;;;15.26;46.78;101455.19;4412493;32;19973;-70
2022/04/26 07:51:30;;;;;;;;;;;;;;;15.39;47.07;101452.34;4409944;32;19989;-69
2022/04/26 07:53:56;;;;;;;;;;;;;;;15.60;47.25;101468.69;4406859;32;20593;-70
2022/04/26 07:56:21;;;;;;;;;;;;;;;15.98;45.99;101465.78;4409882;32;20221;-72
2022/04/26 07:58:47;;;;;;;;;;;;;;;15.39;46.89;101466.53;4406771;32;19993;-71
2022/04/26 08:01:13;;;;;;;;;;;;;;;15.30;47.40;101478.53;4409114;32;19985;-70
2022/04/26 08:03:39;;;;;;;;;;;;;;;15.51;46.61;101471.41;4405284;32;20367;-70
2022/04/26 08:06:05;;;;;;;;;;;;;;;15.87;46.30;101486.81;4410273;32;20010;-71
2022/04/26 08:08:31;;;;;;;;;;;;;;;16.08;45.73;101485.31;4408727;32;20396;-70
2022/04/26 08:10:58;;;;;;;;;;;;;;;16.28;45.13;101494.31;4408282;32;19950;-70
2022/04/26 08:13:23;;;;;;;;;;;;;;;15.86;45.37;101496.56;4388763;32;19993;-72
2022/04/26 08:15:49;;;;;;;;;;;;;;;16.20;45.03;101497.87;4410157;32;19994;-71
2022/04/26 08:18:15;;;;;;;;;;;;;;;16.53;43.96;101497.06;4412264;32;20079;-71
2022/04/26 08:20:41;;;;;;;;;;;;;;;16.55;43.92;101502.31;4408157;32;19997;-69
2022/04/26 08:23:07;;;;;;;;;;;;;;;16.54;44.08;101507.19;4405869;32;20350;-69
2022/04/26 08:28:18;;;;;;;;;;;;;;;16.97;43.19;101503.56;4409719;32;20089;-71
2022/04/26 08:30:44;;;;;;;;;;;;;;;17.03;42.86;101516.69;4411761;32;20305;-72
2022/04/26 08:33:10;;;;;;;;;;;;;;;17.23;42.60;101507.81;4408243;32;20012;-73
2022/04/26 08:35:35;;;;;;;;;;;;;;;16.89;42.83;101511.56;4400345;32;20062;-71
2022/04/26 08:38:01;;;;;;;;;;;;;;;17.39;41.73;101508.37;4407753;32;19965;-71
2022/04/26 08:40:27;;;;;;;;;;;;;;;17.35;41.59;101510.59;4409016;32;20005;-72
2022/04/26 08:42:52;;;;;;;;;;;;;;;17.48;41.99;101517.00;4404239;32;20425;-70
2022/04/26 08:45:19;;;;;;;;;;;;;;;17.32;41.71;101525.75;4401221;32;20142;-73
2022/04/26 08:53:17;;;;;;;;;;;;;;;17.71;40.63;101521.34;4405728;32;19997;-72
2022/04/26 08:55:44;;;;;;;;;;;;;;;17.53;40.41;101524.13;4403456;32;20015;-72
2022/04/26 08:58:11;;;;;;;;;;;;;;;18.11;40.01;101516.41;4407500;32;20000;-71
2022/04/26 09:00:39;;;;;;;;;;;;;;;18.36;39.40;101521.03;4405722;32;21524;-72
2022/04/26 09:03:07;;;;;;;;;;;;;;;18.58;38.84;101530.25;4410490;32;20019;-71
2022/04/26 09:05:33;;;;;;;;;;;;;;;18.66;39.09;101525.81;4410130;32;20736;-72
2022/04/26 09:07:59;;;;;;;;;;;;;;;18.72;38.46;101533.25;4408031;32;19961;-72
2022/04/26 09:10:25;;;;;;;;;;;;;;;17.85;39.76;101537.84;4405042;32;20053;-71
2022/04/26 09:15:47;;;;;;;;;;;;;;;18.57;39.15;101542.94;3955057;32;15866493;-73
2022/04/26 09:18:13;;;;;;;;;;;;;;;18.57;39.15;101542.94;4439242;32;19971;-70
2022/04/26 09:20:39;;;;;;;;;;;;;;;17.96;39.65;101535.34;4434454;32;19982;-70
2022/04/26 09:23:13;;;;;;;;;;;;;;;17.99;39.22;101542.16;4432188;32;20329;-71
2022/04/26 09:25:39;;;;;;;;;;;;;;;18.39;38.35;101542.91;4436632;32;20434;-71
2022/04/26 09:28:06;;;;;;;;;;;;;;;18.48;38.72;101542.91;4438574;32;19961;-71
2022/04/26 09:30:31;;;;;;;;;;;;;;;19.09;37.50;101537.66;4439509;32;20319;-71
2022/04/26 09:32:58;;;;;;;;;;;;;;;19.78;35.87;101538.41;4434089;32;19965;-71
2022/04/26 09:35:24;;;;;;;;;;;;;;;19.27;37.07;101539.72;4436993;32;19964;-71
2022/04/26 09:37:50;;;;;;;;;;;;;;;19.62;36.20;101546.56;4435780;32;20672;-70
2022/04/26 09:40:20;;;;;;;;;;;;;;;20.05;35.37;101539.53;4437824;32;20399;-71
2022/04/26 09:42:48;;;;;;;;;;;;;;;20.02;34.95;101554.78;4434380;32;20032;-71
2022/04/26 09:45:16;;;;;;;;;;;;;;;20.51;33.85;101552.28;4430085;32;20000;-71
2022/04/26 09:47:42;;;;;;;;;;;;;;;20.04;34.51;101552.25;4431726;32;20110;-71
2022/04/26 09:50:09;;;;;;;;;;;;;;;19.91;33.93;101555.31;4434144;32;20413;-71
2022/04/26 09:52:36;;;;;;;;;;;;;;;19.91;34.17;101555.31;4434350;32;19993;-71
2022/04/26 09:55:04;;;;;;;;;;;;;;;19.38;35.12;101549.34;4437111;32;20005;-71
2022/04/26 09:57:32;;;;;;;;;;;;;;;19.83;34.02;101556.97;4435074;32;19961;-71
2022/04/26 09:59:59;;;;;;;;;;;;;;;20.54;32.91;101554.97;4433317;32;20375;-72
2022/04/26 10:02:29;;;;;;;;;;;;;;;20.85;32.23;101555.34;4431001;32;20290;-72
2022/04/26 10:04:55;;;;;;;;;;;;;;;20.99;31.66;101560.31;4433461;32;20038;-72
2022/04/26 10:07:23;;;;;;;;;;;;;;;21.14;31.42;101551.78;4436741;32;19956;-72
2022/04/26 10:09:48;;;;;;;;;;;;;;;20.83;30.53;101551.41;4437727;32;19973;-73
2022/04/26 10:12:15;;;;;;;;;;;;;;;21.09;30.78;101549.59;4435298;32;19975;-72
2022/04/26 10:14:42;;;;;;;;;;;;;;;21.67;30.38;101549.59;4434072;32;20061;-73
2022/04/26 10:17:07;;;;;;;;;;;;;;;21.83;30.25;101551.16;4434921;32;19945;-72
2022/04/26 10:19:36;;;;;;;;;;;;;;;21.83;30.14;101554.03;4438498;32;20528;-72
2022/04/26 10:22:01;;;;;;;;;;;;;;;22.39;29.62;101560.06;4435200;32;21035;-73
2022/04/26 10:24:27;;;;;;;;;;;;;;;21.56;30.39;101549.38;4435478;32;20020;-72
2022/04/26 10:26:52;;;;;;;;;;;;;;;22.06;29.35;101553.09;4428536;32;19988;-73
2022/04/26 10:29:20;;;;;;;;;;;;;;;22.62;27.81;101555.44;4427419;32;19969;-72
2022/04/26 10:39:32;;;;;;;;;;;;;;;25.24;24.40;101556.38;3944083;32;15727561;-71
2022/04/26 10:41:58;;;;;;;;;;;;;;;25.24;24.40;101556.38;4419932;32;20213;-72
2022/04/26 10:44:26;;;;;;;;;;;;;;;23.73;25.67;101545.91;4414326;32;20139;-71
2022/04/26 10:57:23;;;;;;;;;;;;;;;25.25;24.23;101549.31;3945064;32;15721955;-73
2022/04/26 10:59:51;;;;;;;;;;;;;;;25.15;24.17;101547.97;4419983;32;20009;-73
2022/04/26 11:02:18;;;;;;;;;;;;;;;25.38;23.97;101550.38;4418925;32;20406;-72
2022/04/26 11:04:44;;;;;;;;;;;;;;;26.06;23.38;101551.97;4423543;32;20351;-73
2022/04/26 11:07:11;;;;;;;;;;;;;;;25.54;23.60;101548.84;4423608;32;20232;-72
2022/04/26 11:09:43;;;;;;;;;;;;;;;25.05;24.17;101549.53;4421682;32;19977;-73
2022/04/26 11:12:09;;;;;;;;;;;;;;;24.76;23.86;101549.97;4419803;32;20040;-73
2022/04/26 11:14:42;;;;;;;;;;;;;;;24.04;24.67;101543.03;4423618;32;20024;-72
2022/04/26 11:17:07;;;;;;;;;;;;;;;23.24;25.58;101544.19;4418637;32;19957;-71
2022/04/26 11:19:36;;;;;;;;;;;;;;;22.93;26.00;101539.13;4420193;32;20424;-72
2022/04/26 11:22:04;;;;;;;;;;;;;;;23.12;25.88;101543.25;4424128;32;20370;-72
2022/04/26 11:30:02;;;;;;;;;;;;;;;21.42;28.23;101541.63;4424863;32;19993;-73
2022/04/26 11:35:04;;;;;;;;;;;;;;;21.37;29.27;101545.97;3938404;32;15721595;-72
2022/04/26 11:37:30;;;;;;;;;;;;;;;21.37;29.27;101545.97;4426129;32;20384;-72
2022/04/26 11:39:55;;;;;;;;;;;;;;;22.45;27.79;101549.47;4427923;32;19957;-73
2022/04/26 11:42:21;;;;;;;;;;;;;;;24.23;24.90;101544.97;4428905;32;19983;-73
2022/04/26 11:45:06;;;;;;;;;;;;;;;25.72;23.19;101551.19;4430209;32;20054;-72
2022/04/26 11:47:48;;;;;;;;;;;;;;;25.96;22.96;101547.78;4427129;32;20023;-72
2022/04/26 11:50:15;;;;;;;;;;;;;;;25.85;22.73;101542.00;4430444;32;19980;-71
2022/04/26 11:52:43;;;;;;;;;;;;;;;25.37;23.29;101543.06;4425562;32;19953;-72
2022/04/26 11:55:28;;;;;;;;;;;;;;;25.13;23.55;101539.09;4429004;32;20008;-72
2022/04/26 11:58:10;;;;;;;;;;;;;;;24.84;23.92;101536.62;4426853;32;20000;-72
2022/04/26 12:00:48;;;;;;;;;;;;;;;24.53;24.19;101537.56;4429025;32;19960;-73
2022/04/26 12:03:14;;;;;;;;;;;;;;;23.53;24.78;101541.84;4425000;32;19985;-72
2022/04/26 12:05:40;;;;;;;;;;;;;;;23.65;25.18;101533.31;4426991;32;20391;-72
2022/04/26 12:08:10;;;;;;;;;;;;;;;24.20;24.17;101537.38;4430611;32;20004;-73
2022/04/26 12:10:36;;;;;;;;;;;;;;;25.12;23.48;101549.00;4429201;32;19997;-73
2022/04/26 12:13:03;;;;;;;;;;;;;;;25.70;22.77;101542.28;4427303;32;20030;-73
2022/04/26 12:15:30;;;;;;;;;;;;;;;26.29;22.08;101548.50;4427057;32;19985;-73
2022/04/26 12:18:13;;;;;;;;;;;;;;;25.83;22.12;101544.66;4429228;32;20004;-72
2022/04/26 12:20:55;;;;;;;;;;;;;;;25.60;22.72;101548.84;4426406;32;20041;-72
2022/04/26 12:23:22;;;;;;;;;;;;;;;25.09;23.03;101545.09;4427704;32;19976;-73
2022/04/26 12:26:03;;;;;;;;;;;;;;;24.65;23.77;101539.19;4427249;32;20024;-73
2022/04/26 12:28:29;;;;;;;;;;;;;;;24.29;23.80;101540.03;4432755;32;19993;-73
2022/04/26 12:30:55;;;;;;;;;;;;;;;24.01;24.01;101541.97;4428760;32;20061;-74
2022/04/26 12:33:26;;;;;;;;;;;;;;;24.13;23.21;101542.81;4421887;32;20008;-73
2022/04/26 12:35:56;;;;;;;;;;;;;;;23.84;23.50;101543.13;4428917;32;20098;-73
2022/04/26 12:38:21;;;;;;;;;;;;;;;23.66;24.10;101532.81;4429226;32;19964;-72
2022/04/26 12:40:59;;;;;;;;;;;;;;;23.77;24.08;101538.63;4427305;32;20071;-72
2022/04/26 12:43:26;;;;;;;;;;;;;;;23.54;24.43;101536.88;4426144;32;20017;-73
2022/04/26 12:46:02;;;;;;;;;;;;;;;23.13;24.85;101535.41;4419928;32;19992;-72
2022/04/26 12:51:20;;;;;;;;;;;;;;;22.76;25.69;101531.59;4416127;32;19987;-73
2022/04/26 12:53:46;;;;;;;;;;;;;;;22.90;25.53;101539.34;4416781;32;20013;-74
2022/04/26 12:56:12;;;;;;;;;;;;;;;23.15;25.41;101530.75;4418344;32;20030;-74
2022/04/26 12:58:38;;;;;;;;;;;;;;;23.68;24.88;101538.81;4419668;32;20375;-74
2022/04/26 13:01:04;;;;;;;;;;;;;;;23.98;23.81;101530.69;4419093;32;21016;-74
2022/04/26 13:03:30;;;;;;;;;;;;;;;23.77;23.76;101532.88;4417236;32;19971;-74
2022/04/26 13:06:13;;;;;;;;;;;;;;;24.10;23.08;101533.12;4415871;32;20009;-74
2022/04/26 13:08:45;;;;;;;;;;;;;;;24.00;23.00;101525.22;4416146;32;20103;-73
2022/04/26 13:11:12;;;;;;;;;;;;;;;23.28;24.01;101533.25;4418552;32;20390;-74
2022/04/26 13:13:39;;;;;;;;;;;;;;;22.40;25.33;101535.81;4415847;32;19975;-73
2022/04/26 13:16:05;;;;;;;;;;;;;;;21.50;26.37;101525.59;4417643;32;19996;-73
2022/04/26 13:18:31;;;;;;;;;;;;;;;21.08;27.08;101533.72;4416638;32;20052;-73
2022/04/26 13:20:57;;;;;;;;;;;;;;;21.35;27.10;101525.59;4420245;32;20011;-74
2022/04/26 13:23:25;;;;;;;;;;;;;;;21.15;27.31;101527.59;4414826;32;20186;-73
2022/04/26 13:25:51;;;;;;;;;;;;;;;21.22;27.00;101530.03;4417645;32;20421;-74
2022/04/26 13:28:17;;;;;;;;;;;;;;;21.18;27.00;101515.16;4417848;32;20011;-74
2022/04/26 13:30:42;;;;;;;;;;;;;;;20.75;27.32;101522.38;4418494;32;20389;-74
2022/04/26 13:33:08;;;;;;;;;;;;;;;20.82;28.46;101526.91;4417337;32;20017;-73
2022/04/26 13:35:37;;;;;;;;;;;;;;;21.54;28.83;101526.97;4405207;32;20019;-73
2022/04/26 13:38:07;;;;;;;;;;;;;;;22.76;28.00;101534.47;4417840;32;20036;-73
2022/04/26 13:40:32;;;;;;;;;;;;;;;22.92;27.65;101539.66;4414292;32;20120;-72
2022/04/26 13:42:58;;;;;;;;;;;;;;;22.81;27.69;101531.69;4416905;32;20346;-73
2022/04/26 13:45:23;;;;;;;;;;;;;;;22.46;27.85;101535.91;4415638;32;20551;-73
2022/04/26 13:47:51;;;;;;;;;;;;;;;22.23;28.28;101534.03;4421336;32;20386;-72
2022/04/26 13:50:20;;;;;;;;;;;;;;;21.85;28.99;101531.41;4417940;32;19973;-73
2022/04/26 13:52:49;;;;;;;;;;;;;;;21.38;29.89;101532.41;4416496;32;19965;-74
2022/04/26 13:55:17;;;;;;;;;;;;;;;21.11;30.16;101538.44;4413599;32;19991;-73
2022/04/26 13:57:43;;;;;;;;;;;;;;;21.35;29.72;101537.06;4415860;32;19977;-72
2022/04/26 14:00:11;;;;;;;;;;;;;;;21.23;29.56;101528.78;4418449;32;19971;-73
2022/04/26 14:02:41;;;;;;;;;;;;;;;21.28;29.51;101520.28;4415927;32;20023;-71
2022/04/26 14:05:08;;;;;;;;;;;;;;;22.39;28.16;101525.66;4421400;32;20005;-73
2022/04/26 14:07:33;;;;;;;;;;;;;;;25.24;24.92;101525.47;4416598;32;19988;-73
2022/04/26 14:09:59;;;;;;;;;;;;;;;27.94;21.88;101540.97;4411617;32;20538;-73
2022/04/26 14:12:24;;;;;;;;;;;;;;;29.28;20.13;101529.31;4417310;32;19945;-73
2022/04/26 14:23:08;;;;;;;;;;;;;;;33.27;15.90;101552.19;4417780;32;20295;-72
2022/04/26 14:25:37;;;;;;;;;;;;;;;30.93;17.60;101546.59;4416104;32;20003;-73
2022/04/26 14:28:03;;;;;;;;;;;;;;;29.42;18.99;101543.31;4408817;32;20637;-73
2022/04/26 14:30:30;;;;;;;;;;;;;;;29.19;19.17;101535.53;4418100;32;20076;-73
2022/04/26 14:32:57;;;;;;;;;;;;;;;28.18;20.00;101535.22;4414637;32;20604;-74
2022/04/26 14:35:23;;;;;;;;;;;;;;;27.91;20.87;101547.06;4420309;32;20338;-72
2022/04/26 14:37:51;;;;;;;;;;;;;;;27.37;21.52;101532.53;4418038;32;20044;-72
2022/04/26 14:40:18;;;;;;;;;;;;;;;27.11;21.81;101535.03;4418553;32;20092;-72
2022/04/26 14:42:46;;;;;;;;;;;;;;;28.19;20.57;101542.56;4417985;32;20367;-72
2022/04/26 14:45:12;;;;;;;;;;;;;;;29.49;19.43;101530.31;4421204;32;20446;-73
2022/04/26 14:47:40;;;;;;;;;;;;;;;30.09;18.45;101540.06;4420898;32;19991;-72
2022/04/26 14:50:09;;;;;;;;;;;;;;;27.98;19.87;101524.09;4418989;32;20010;-73
2022/04/26 14:52:36;;;;;;;;;;;;;;;28.30;19.72;101527.19;4405815;32;20000;-72
2022/04/26 14:55:04;;;;;;;;;;;;;;;26.87;20.85;101534.91;4418080;32;19990;-72
2022/04/26 14:57:31;;;;;;;;;;;;;;;25.41;21.97;101533.38;4419881;32;20007;-72
2022/04/26 14:59:57;;;;;;;;;;;;;;;24.87;23.02;101524.87;4414289;32;19953;-72
2022/04/26 15:02:22;;;;;;;;;;;;;;;27.02;21.11;101530.38;4415820;32;20061;-72
2022/04/26 15:04:48;;;;;;;;;;;;;;;28.71;19.65;101527.75;4405535;32;20003;-73
2022/04/26 15:07:14;;;;;;;;;;;;;;;30.53;17.56;101534.19;4415959;32;19964;-73
2022/04/26 15:09:52;;;;;;;;;;;;;;;32.09;15.66;101541.59;4414587;32;20064;-73
2022/04/26 15:17:50;;;;;;;;;;;;;;;30.37;16.60;101538.22;4416565;32;19993;-71
2022/04/26 15:20:17;;;;;;;;;;;;;;;29.85;17.00;101531.56;4417068;32;19988;-71
2022/04/26 15:22:43;;;;;;;;;;;;;;;29.68;16.88;101537.66;4417919;32;19993;-71
2022/04/26 15:25:10;;;;;;;;;;;;;;;29.82;17.03;101541.38;4417975;32;20016;-71
2022/04/26 15:27:38;;;;;;;;;;;;;;;30.71;16.24;101542.00;4418993;32;20432;-72
2022/04/26 15:30:05;;;;;;;;;;;;;;;30.22;16.43;101540.12;4414129;32;20052;-71
2022/04/26 15:32:30;;;;;;;;;;;;;;;30.15;16.36;101537.84;4419993;32;20394;-72
2022/04/26 15:34:56;;;;;;;;;;;;;;;32.02;15.03;101538.63;4418178;32;20003;-72
2022/04/26 15:37:24;;;;;;;;;;;;;;;33.24;14.15;101542.47;4418046;32;20272;-72
2022/04/26 15:39:51;;;;;;;;;;;;;;;34.27;13.18;101536.53;4418993;32;19957;-72
2022/04/26 15:42:18;;;;;;;;;;;;;;;33.44;13.34;101532.03;4420117;32;20036;-72
2022/04/26 15:44:44;;;;;;;;;;;;;;;32.93;13.88;101537.88;4415237;32;20001;-72
2022/04/26 15:47:09;;;;;;;;;;;;;;;31.94;14.65;101532.75;4418091;32;20314;-72
2022/04/26 15:49:35;;;;;;;;;;;;;;;29.88;16.30;101515.94;4422014;32;20392;-71
2022/04/26 15:52:00;;;;;;;;;;;;;;;29.59;16.81;101526.44;4409358;32;20599;-71
2022/04/26 15:54:26;;;;;;;;;;;;;;;30.87;16.16;101528.47;4423460;32;19996;-71
2022/04/26 15:56:52;;;;;;;;;;;;;;;32.30;15.34;101535.72;4419566;32;20399;-72
2022/04/26 15:59:18;;;;;;;;;;;;;;;33.93;14.43;101536.16;4420590;32;20015;-72
2022/04/26 16:01:43;;;;;;;;;;;;;;;34.97;14.33;101547.50;4421655;32;19989;-72
2022/04/26 16:04:09;;;;;;;;;;;;;;;35.33;14.14;101550.81;4423464;32;20038;-72
2022/04/26 16:06:37;;;;;;;;;;;;;;;34.28;14.64;101543.16;4421616;32;20001;-72
2022/04/26 16:20:37;;;;;;;;;;;;;;;26.64;22.54;101550.78;4419217;32;20388;-71
2022/04/26 16:22:51;;;;;;;;;;;;;;;25.81;23.50;101550.94;4418238;32;19961;-71
2022/04/26 16:25:16;;;;;;;;;;;;;;;25.02;24.28;101551.38;4423871;32;20020;-71
2022/04/26 16:27:42;;;;;;;;;;;;;;;24.45;24.82;101556.59;4423948;32;19983;-71
2022/04/26 16:30:09;;;;;;;;;;;;;;;23.88;25.90;101558.84;4426708;32;19993;-71
2022/04/26 16:32:34;;;;;;;;;;;;;;;23.77;26.09;101555.09;4425439;32;19980;-71
2022/04/26 16:35:00;;;;;;;;;;;;;;;23.67;26.01;101548.75;4411337;32;20860;-71
2022/04/26 16:37:25;;;;;;;;;;;;;;;22.97;26.76;101554.03;4426034;32;19941;-71
2022/04/26 16:39:50;;;;;;;;;;;;;;;22.87;26.93;101548.97;4425378;32;20674;-72
2022/04/26 16:42:16;;;;;;;;;;;;;;;22.72;27.17;101554.81;4423602;32;19996;-71
2022/04/26 16:44:42;;;;;;;;;;;;;;;22.88;26.69;101547.66;4425924;32;19995;-71
2022/04/26 16:47:07;;;;;;;;;;;;;;;22.83;26.68;101552.03;4426380;32;20221;-71
2022/04/26 16:49:33;;;;;;;;;;;;;;;23.03;26.68;101549.16;4426414;32;19964;-71
2022/04/26 16:51:59;;;;;;;;;;;;;;;23.51;26.20;101550.16;4424678;32;19977;-71
2022/04/26 16:54:24;;;;;;;;;;;;;;;23.87;25.30;101560.13;4424857;32;20024;-71
2022/04/26 16:56:50;;;;;;;;;;;;;;;23.78;25.15;101557.47;4417891;32;20008;-71
2022/04/26 16:59:17;;;;;;;;;;;;;;;24.25;24.73;101551.00;4424712;32;20003;-71
2022/04/26 17:01:44;;;;;;;;;;;;;;;26.33;22.60;101563.47;4426545;32;19960;-71
2022/04/26 17:04:12;;;;;;;;;;;;;;;28.21;20.86;101565.97;4426335;32;19981;-71
2022/04/26 17:06:38;;;;;;;;;;;;;;;29.36;19.52;101565.06;4429227;32;19988;-70
2022/04/26 17:09:03;;;;;;;;;;;;;;;29.34;19.37;101585.91;4424177;32;19963;-71
2022/04/26 17:11:44;;;;;;;;;;;;;;;29.14;19.67;101582.78;4425777;32;19972;-71
2022/04/26 17:14:10;;;;;;;;;;;;;;;29.55;19.42;101578.19;4425495;32;19980;-71
2022/04/26 17:16:35;;;;;;;;;;;;;;;28.33;20.80;101587.69;4425683;32;20001;-70